Time;durP1;ratioP1;P1;durP2;ratioP2;P2;SDS_P1;SDS_P2;PMS_P1;PMS_P2;Temp;Humidity;BMP_temperature;BMP_pressure;BME280_temperature;BME280_humidity;BME280_pressure;Samples;Min_cycle;Max_cycle;Signal;HPM_P1;HPM_P2
2022/03/15 00:01:24;;;;;;;11.80;8.60;;;18.60;44.10;;;;;;4843279;29;20200;-84
2022/03/15 00:03:53;;;;;;;11.75;9.15;;;18.60;43.90;;;;;;4829525;29;20166;-82
2022/03/15 00:06:23;;;;;;;13.20;8.43;;;18.60;43.70;;;;;;4831264;29;20169;-83
2022/03/15 00:08:50;;;;;;;12.13;8.88;;;18.50;44.00;;;;;;4842959;29;20172;-81
2022/03/15 00:11:18;;;;;;;13.23;9.13;;;18.60;43.60;;;;;;4845248;29;20201;-82
2022/03/15 00:13:47;;;;;;;14.10;8.68;;;18.60;43.80;;;;;;4848630;29;20176;-81
2022/03/15 00:16:15;;;;;;;10.95;8.02;;;18.60;43.70;;;;;;4849586;29;20582;-86
2022/03/15 00:18:41;;;;;;;12.45;9.07;;;18.60;43.90;;;;;;4841721;29;20225;-84
2022/03/15 00:21:10;;;;;;;12.10;8.60;;;18.50;43.80;;;;;;4826954;29;20549;-84
2022/03/15 00:23:36;;;;;;;12.70;8.73;;;18.50;44.10;;;;;;4826966;29;20230;-83
2022/03/15 00:26:02;;;;;;;13.90;8.63;;;18.50;44.10;;;;;;4827280;29;20259;-85
2022/03/15 00:28:29;;;;;;;14.25;8.13;;;18.50;43.80;;;;;;4842102;29;20238;-83
2022/03/15 00:30:56;;;;;;;16.50;8.77;;;18.50;44.20;;;;;;4826942;29;20182;-86
2022/03/15 00:33:24;;;;;;;12.23;8.80;;;18.60;43.70;;;;;;4827105;29;20185;-83
2022/03/15 00:35:53;;;;;;;11.23;8.68;;;18.50;44.10;;;;;;4828456;29;20201;-88
2022/03/15 00:38:20;;;;;;;10.85;8.52;;;18.50;43.80;;;;;;4815267;29;20170;-84
2022/03/15 00:40:49;;;;;;;12.90;8.95;;;18.50;43.90;;;;;;4845601;29;20166;-84
2022/03/15 00:43:17;;;;;;;11.50;8.55;;;18.50;43.90;;;;;;4829808;29;20241;-86
2022/03/15 00:45:45;;;;;;;10.85;8.40;;;18.50;44.10;;;;;;4815434;29;20276;-82
2022/03/15 00:48:13;;;;;;;11.55;8.35;;;18.50;44.20;;;;;;4842436;29;20204;-82
2022/03/15 00:50:42;;;;;;;11.80;8.48;;;18.50;44.30;;;;;;4827075;29;20198;-84
2022/03/15 00:53:10;;;;;;;10.43;8.20;;;18.50;44.40;;;;;;4842573;29;20173;-86
2022/03/15 00:55:40;;;;;;;12.68;8.55;;;18.50;44.30;;;;;;4826496;29;20685;-84
2022/03/15 00:58:11;;;;;;;13.38;9.48;;;18.50;44.30;;;;;;4825906;29;20666;-86
2022/03/15 01:00:38;;;;;;;10.70;8.25;;;18.40;44.40;;;;;;4810628;29;20569;-82
2022/03/15 01:03:05;;;;;;;12.20;8.63;;;18.40;44.00;;;;;;4840628;29;20193;-83
2022/03/15 01:05:31;;;;;;;12.57;8.98;;;18.40;44.60;;;;;;4810076;29;20192;-85
2022/03/15 01:07:58;;;;;;;14.35;9.15;;;18.40;44.50;;;;;;4840764;29;20185;-83
2022/03/15 01:10:24;;;;;;;11.88;8.63;;;18.40;44.20;;;;;;4826082;29;20249;-85
2022/03/15 01:12:49;;;;;;;13.43;8.80;;;18.40;44.60;;;;;;4842522;29;20154;-87
2022/03/15 01:15:15;;;;;;;12.98;8.95;;;18.40;44.30;;;;;;4826307;29;20661;-86
2022/03/15 01:17:41;;;;;;;12.18;8.77;;;18.30;44.60;;;;;;4828836;29;20166;-83
2022/03/15 01:20:08;;;;;;;12.00;8.20;;;18.40;44.30;;;;;;4848374;29;20189;-86
2022/03/15 01:22:39;;;;;;;11.20;8.55;;;18.40;44.50;;;;;;4833215;29;20636;-82
2022/03/15 01:25:05;;;;;;;11.80;8.77;;;18.40;44.50;;;;;;4832444;29;20640;-85
2022/03/15 01:27:31;;;;;;;11.40;8.45;;;18.40;44.20;;;;;;4848241;29;20165;-84
2022/03/15 01:29:58;;;;;;;12.00;8.30;;;18.50;44.10;;;;;;4848468;29;20177;-82
2022/03/15 01:32:24;;;;;;;12.23;8.77;;;18.40;44.40;;;;;;4864798;29;20167;-83
2022/03/15 01:34:54;;;;;;;13.48;9.20;;;18.40;44.00;;;;;;4848009;29;20193;-85
2022/03/15 01:37:24;;;;;;;12.05;8.80;;;18.40;44.20;;;;;;4832026;29;20557;-84
2022/03/15 01:39:49;;;;;;;12.50;9.10;;;18.40;44.70;;;;;;4834740;29;20189;-82
2022/03/15 01:42:15;;;;;;;12.23;9.13;;;18.40;44.90;;;;;;4840150;29;20180;-83
2022/03/15 01:44:49;;;;;;;10.70;8.35;;;18.30;44.50;;;;;;4852498;29;20510;-81
2022/03/15 01:47:15;;;;;;;11.10;8.27;;;18.30;44.30;;;;;;4808418;29;20189;-82
2022/03/15 01:49:42;;;;;;;10.45;8.45;;;18.30;44.10;;;;;;4869600;29;20191;-84
2022/03/15 01:52:13;;;;;;;11.13;8.52;;;18.40;44.40;;;;;;4852273;29;20205;-84
2022/03/15 01:54:43;;;;;;;11.95;8.82;;;18.40;44.60;;;;;;4838429;29;20219;-86
2022/03/15 01:57:13;;;;;;;11.15;9.00;;;18.30;44.70;;;;;;4831843;29;20185;-84
2022/03/15 01:59:42;;;;;;;11.82;8.35;;;18.30;44.40;;;;;;4817044;29;20717;-83
2022/03/15 02:02:10;;;;;;;11.85;8.90;;;18.30;45.00;;;;;;4831531;29;20193;-84
2022/03/15 02:04:39;;;;;;;12.45;8.95;;;18.30;44.90;;;;;;4816318;29;20345;-85
2022/03/15 02:07:13;;;;;;;11.77;8.35;;;18.30;45.00;;;;;;4831551;29;20294;-84
2022/03/15 02:09:41;;;;;;;11.25;8.57;;;18.30;44.70;;;;;;4816743;29;20192;-84
2022/03/15 02:12:14;;;;;;;11.80;8.65;;;18.30;44.80;;;;;;4831686;29;20185;-85
2022/03/15 02:14:44;;;;;;;12.48;8.38;;;18.40;44.80;;;;;;4802449;29;20223;-88
2022/03/15 02:17:12;;;;;;;12.15;8.30;;;18.30;44.50;;;;;;4831583;29;20189;-83
2022/03/15 02:19:43;;;;;;;12.13;8.52;;;18.30;44.60;;;;;;4843832;29;20240;-84
2022/03/15 02:22:10;;;;;;;11.52;8.30;;;18.30;44.20;;;;;;4843653;29;20220;-84
2022/03/15 02:24:42;;;;;;;12.23;8.68;;;18.30;44.30;;;;;;4813175;29;20193;-84
2022/03/15 02:27:12;;;;;;;12.70;9.05;;;18.30;44.60;;;;;;4828528;29;20189;-88
2022/03/15 02:29:42;;;;;;;13.73;9.25;;;18.30;44.20;;;;;;4827630;29;20198;-83
2022/03/15 02:32:11;;;;;;;12.05;8.73;;;18.30;44.90;;;;;;4813097;29;20194;-86
2022/03/15 02:34:37;;;;;;;12.13;8.32;;;18.30;44.70;;;;;;4843333;29;20636;-83
2022/03/15 02:37:03;;;;;;;14.15;8.60;;;18.30;44.70;;;;;;4843827;29;20261;-83
2022/03/15 02:39:37;;;;;;;12.73;8.73;;;18.30;44.80;;;;;;4828695;29;20169;-86
2022/03/15 02:42:04;;;;;;;10.80;8.77;;;18.20;44.60;;;;;;4827951;29;20650;-81
2022/03/15 02:44:30;;;;;;;10.80;8.65;;;18.20;44.60;;;;;;4812418;29;20193;-85
2022/03/15 02:46:56;;;;;;;10.18;8.48;;;18.30;44.60;;;;;;4842881;29;20196;-85
2022/03/15 02:49:25;;;;;;;10.65;8.30;;;18.20;45.00;;;;;;4844878;29;20170;-82
2022/03/15 02:51:52;;;;;;;10.52;8.50;;;18.20;44.90;;;;;;4827843;29;20316;-83
2022/03/15 02:54:22;;;;;;;10.30;8.43;;;18.20;45.30;;;;;;4812598;29;20589;-85
2022/03/15 02:56:50;;;;;;;11.02;8.63;;;18.20;44.80;;;;;;4813092;29;20288;-85
2022/03/15 02:59:21;;;;;;;11.88;8.68;;;18.20;45.10;;;;;;4827799;29;20192;-86
2022/03/15 03:01:49;;;;;;;12.07;8.60;;;18.20;44.60;;;;;;4842857;29;20217;-83
2022/03/15 03:04:19;;;;;;;10.90;8.40;;;18.20;44.80;;;;;;4828181;29;20602;-82
2022/03/15 03:06:44;;;;;;;10.85;8.35;;;18.10;44.60;;;;;;4842899;29;20196;-84
2022/03/15 03:09:16;;;;;;;12.65;8.63;;;18.20;44.80;;;;;;4813143;29;20173;-86
2022/03/15 03:11:44;;;;;;;11.23;8.52;;;18.20;44.60;;;;;;4828068;29;20185;-81
2022/03/15 03:14:13;;;;;;;11.65;8.40;;;18.20;44.80;;;;;;4812448;29;20238;-84
2022/03/15 03:16:40;;;;;;;10.05;8.18;;;18.20;44.70;;;;;;4827540;29;20230;-88
2022/03/15 03:19:08;;;;;;;12.88;8.48;;;18.20;44.80;;;;;;4839538;29;20333;-86
2022/03/15 03:21:43;;;;;;;13.60;8.80;;;18.20;45.00;;;;;;4824257;29;20276;-84
2022/03/15 03:24:09;;;;;;;10.55;8.63;;;18.20;45.00;;;;;;4824286;29;20237;-85
2022/03/15 03:26:38;;;;;;;12.15;8.80;;;18.20;45.10;;;;;;4824510;29;20198;-83
2022/03/15 03:29:10;;;;;;;10.57;8.40;;;18.10;45.30;;;;;;4839268;29;20198;-85
2022/03/15 03:31:38;;;;;;;10.40;8.52;;;18.10;45.00;;;;;;4824658;29;20285;-87
2022/03/15 03:34:11;;;;;;;11.82;8.98;;;18.10;45.00;;;;;;4809903;29;20174;-85
2022/03/15 03:36:37;;;;;;;12.40;8.98;;;18.20;45.20;;;;;;4808667;29;20226;-85
2022/03/15 03:39:07;;;;;;;11.18;8.77;;;18.10;45.00;;;;;;4809631;29;20186;-86
2022/03/15 03:41:41;;;;;;;11.80;8.57;;;18.10;45.40;;;;;;4808166;29;20190;-82
2022/03/15 03:44:11;;;;;;;10.80;8.85;;;18.10;45.20;;;;;;4809200;29;20618;-85
2022/03/15 03:46:38;;;;;;;10.93;8.55;;;18.10;44.80;;;;;;4839382;29;20189;-85
2022/03/15 03:49:08;;;;;;;12.35;8.73;;;18.20;45.20;;;;;;4809564;29;20198;-83
2022/03/15 03:51:38;;;;;;;12.93;8.80;;;18.10;45.20;;;;;;4824100;29;20554;-86
2022/03/15 03:54:05;;;;;;;12.27;8.93;;;18.10;45.20;;;;;;4824037;29;20197;-85
2022/03/15 03:56:35;;;;;;;11.02;8.10;;;18.10;45.10;;;;;;4824647;29;20194;-87
2022/03/15 03:59:04;;;;;;;10.82;8.88;;;18.10;45.30;;;;;;4808758;29;20560;-84
2022/03/15 04:01:32;;;;;;;11.48;8.52;;;18.10;45.00;;;;;;4808718;29;20186;-86
2022/03/15 04:04:05;;;;;;;11.65;8.45;;;18.10;45.20;;;;;;4808228;29;20186;-85
2022/03/15 04:06:33;;;;;;;10.02;8.40;;;18.10;44.90;;;;;;4823831;29;20220;-86
2022/03/15 04:09:01;;;;;;;10.48;8.25;;;18.10;44.50;;;;;;4808815;29;20189;-87
2022/03/15 04:11:31;;;;;;;10.82;8.38;;;18.10;44.90;;;;;;4838574;29;20198;-86
2022/03/15 04:13:59;;;;;;;13.43;9.40;;;18.20;44.90;;;;;;4838725;29;20254;-84
2022/03/15 04:16:28;;;;;;;12.23;8.90;;;18.10;44.80;;;;;;4823594;29;20264;-81
2022/03/15 04:18:54;;;;;;;11.43;8.07;;;18.10;45.00;;;;;;4807633;29;20233;-82
2022/03/15 04:21:24;;;;;;;10.20;8.52;;;18.10;44.80;;;;;;4809043;29;20719;-84
2022/03/15 04:23:55;;;;;;;11.45;8.23;;;18.10;45.90;;;;;;4838205;29;20330;-87
2022/03/15 04:26:25;;;;;;;11.35;8.70;;;18.10;45.30;;;;;;4838702;29;20647;-83
2022/03/15 04:28:56;;;;;;;10.75;8.43;;;18.10;45.30;;;;;;4823592;29;20654;-85
2022/03/15 04:31:24;;;;;;;11.43;8.60;;;18.10;44.90;;;;;;4838571;29;20205;-86
2022/03/15 04:33:51;;;;;;;14.43;9.15;;;18.10;45.20;;;;;;4823427;29;20201;-86
2022/03/15 04:36:22;;;;;;;11.57;8.50;;;18.00;45.30;;;;;;4822770;29;20266;-85
2022/03/15 04:38:51;;;;;;;12.65;8.90;;;18.10;44.80;;;;;;4823132;29;20195;-82
2022/03/15 04:41:21;;;;;;;12.80;8.80;;;18.10;45.00;;;;;;4838308;29;20217;-85
2022/03/15 04:43:52;;;;;;;12.55;9.07;;;18.10;45.30;;;;;;4807997;29;20547;-87
2022/03/15 04:46:23;;;;;;;10.73;8.63;;;18.10;45.40;;;;;;4822978;29;20614;-85
2022/03/15 04:48:50;;;;;;;11.98;8.45;;;18.00;44.80;;;;;;4822908;29;20193;-83
2022/03/15 04:51:17;;;;;;;13.73;8.02;;;18.10;45.20;;;;;;4822916;29;20246;-85
2022/03/15 04:53:44;;;;;;;10.50;8.18;;;18.10;44.80;;;;;;4825579;29;20661;-81
2022/03/15 04:56:14;;;;;;;10.48;8.25;;;18.10;45.50;;;;;;4826230;29;20217;-86
2022/03/15 04:58:45;;;;;;;11.95;8.88;;;18.10;45.00;;;;;;4826693;29;20239;-86
2022/03/15 05:01:12;;;;;;;11.40;8.73;;;18.10;45.10;;;;;;4811469;29;20217;-84
2022/03/15 05:03:40;;;;;;;12.43;8.65;;;18.10;45.30;;;;;;4841874;29;20650;-85
2022/03/15 05:06:10;;;;;;;12.80;9.25;;;18.10;44.90;;;;;;4826471;29;20198;-87
2022/03/15 05:08:35;;;;;;;11.57;8.63;;;18.10;45.00;;;;;;4826621;29;20194;-83
2022/03/15 05:11:07;;;;;;;10.82;8.35;;;18.10;44.80;;;;;;4841522;29;20669;-84
2022/03/15 05:13:42;;;;;;;11.15;9.00;;;18.10;45.30;;;;;;4841349;29;20198;-82
2022/03/15 05:16:16;;;;;;;11.90;8.63;;;18.10;45.30;;;;;;4811875;29;20308;-83
2022/03/15 05:18:44;;;;;;;11.82;8.68;;;18.10;45.20;;;;;;4826335;29;20226;-83
2022/03/15 05:21:16;;;;;;;10.20;8.40;;;18.00;45.30;;;;;;4811035;29;20185;-82
2022/03/15 05:23:44;;;;;;;10.82;8.43;;;18.00;45.10;;;;;;4811673;29;20246;-89
2022/03/15 05:26:11;;;;;;;10.90;8.70;;;18.00;45.30;;;;;;4826696;29;20205;-85
2022/03/15 05:28:46;;;;;;;11.38;8.68;;;18.00;45.50;;;;;;4841610;29;20194;-83
2022/03/15 05:31:13;;;;;;;10.60;8.02;;;18.00;45.50;;;;;;4841345;29;20198;-81
2022/03/15 05:33:44;;;;;;;11.88;9.05;;;18.00;45.00;;;;;;4841562;29;20336;-84
2022/03/15 05:36:14;;;;;;;11.32;8.88;;;18.10;45.00;;;;;;4825925;29;20225;-85
2022/03/15 05:38:47;;;;;;;10.20;8.32;;;18.10;45.20;;;;;;4826316;29;20642;-88
2022/03/15 05:41:13;;;;;;;13.93;8.90;;;18.10;44.70;;;;;;4841196;29;20266;-83
2022/03/15 05:43:40;;;;;;;11.95;8.82;;;18.10;44.80;;;;;;4826043;29;20532;-84
2022/03/15 05:46:07;;;;;;;13.15;9.05;;;18.10;45.00;;;;;;4826019;29;20193;-84
2022/03/15 05:48:34;;;;;;;12.18;8.63;;;18.10;45.30;;;;;;4827037;29;20163;-84
2022/03/15 05:51:00;;;;;;;9.85;8.02;;;18.10;44.60;;;;;;4828038;29;20166;-83
2022/03/15 05:53:30;;;;;;;11.70;8.85;;;18.10;44.60;;;;;;4827046;29;20218;-84
2022/03/15 05:56:01;;;;;;;11.02;8.45;;;18.10;44.70;;;;;;4841226;29;20232;-84
2022/03/15 05:58:27;;;;;;;11.65;8.95;;;18.10;44.60;;;;;;4841151;29;20213;-84
2022/03/15 06:00:55;;;;;;;10.77;8.90;;;18.20;44.70;;;;;;4828440;29;20158;-83
2022/03/15 06:03:21;;;;;;;10.82;8.52;;;18.20;44.80;;;;;;4811809;29;20181;-83
2022/03/15 06:05:53;;;;;;;10.75;8.30;;;18.20;44.50;;;;;;4827055;29;20166;-86
2022/03/15 06:08:23;;;;;;;10.90;8.32;;;18.20;44.60;;;;;;4842557;29;20239;-84
2022/03/15 06:10:50;;;;;;;11.38;8.40;;;18.20;43.90;;;;;;4828101;29;20194;-83
2022/03/15 06:13:19;;;;;;;12.18;8.80;;;18.30;44.50;;;;;;4828562;29;20193;-84
2022/03/15 06:15:46;;;;;;;10.48;8.05;;;18.30;44.40;;;;;;4843520;29;20233;-83
2022/03/15 06:18:11;;;;;;;12.20;9.30;;;18.30;44.30;;;;;;4840409;29;20712;-84
2022/03/15 06:20:37;;;;;;;10.27;8.10;;;18.30;44.20;;;;;;4850175;29;20260;-83
2022/03/15 06:23:07;;;;;;;11.73;8.63;;;18.30;43.90;;;;;;4850698;29;20165;-84
2022/03/15 06:25:33;;;;;;;10.38;8.02;;;18.30;43.90;;;;;;4839388;29;20188;-85
2022/03/15 06:27:58;;;;;;;11.30;8.40;;;18.30;44.50;;;;;;4850106;29;20195;-85
2022/03/15 06:30:25;;;;;;;10.13;8.25;;;18.40;44.00;;;;;;4865454;29;20168;-85
2022/03/15 06:32:51;;;;;;;10.32;8.30;;;18.40;43.70;;;;;;4870378;29;20631;-83
2022/03/15 06:35:19;;;;;;;9.65;8.10;;;18.40;43.80;;;;;;4860943;29;20214;-81
2022/03/15 06:37:46;;;;;;;10.10;8.07;;;18.30;44.50;;;;;;4861697;29;20172;-81
2022/03/15 06:40:13;;;;;;;11.60;8.52;;;18.40;43.80;;;;;;4876657;29;20152;-81
2022/03/15 06:42:39;;;;;;;11.20;8.55;;;18.40;43.50;;;;;;4876700;29;20156;-80
2022/03/15 06:45:06;;;;;;;10.75;8.20;;;18.50;43.90;;;;;;4862134;29;20176;-80
2022/03/15 06:47:33;;;;;;;9.43;7.68;;;18.40;43.70;;;;;;4877284;29;20535;-81
2022/03/15 06:50:00;;;;;;;10.75;8.20;;;18.40;43.20;;;;;;4862030;29;20180;-80
2022/03/15 06:52:25;;;;;;;9.48;8.23;;;18.40;43.50;;;;;;4879465;29;20210;-81
2022/03/15 06:54:51;;;;;;;10.63;8.10;;;18.50;43.10;;;;;;4879436;29;20199;-80
2022/03/15 06:57:17;;;;;;;9.98;8.00;;;18.50;43.00;;;;;;4895067;29;20262;-80
2022/03/15 06:59:47;;;;;;;10.80;8.18;;;18.50;43.40;;;;;;4879850;29;20183;-81
2022/03/15 07:02:13;;;;;;;11.68;8.52;;;18.50;42.80;;;;;;4846326;29;20183;-82
2022/03/15 07:04:43;;;;;;;10.65;8.40;;;18.40;42.90;;;;;;4864743;29;20219;-82
2022/03/15 07:07:12;;;;;;;9.48;8.13;;;18.50;43.40;;;;;;4849530;29;20208;-82
2022/03/15 07:09:41;;;;;;;10.05;7.90;;;18.50;43.30;;;;;;4895694;29;20163;-82
2022/03/15 07:12:09;;;;;;;9.50;8.07;;;18.50;43.10;;;;;;4880007;29;20175;-83
2022/03/15 07:14:45;;;;;;;;;;;;;;;;;;;;;
2022/03/15 07:17:12;;;;;;;10.05;8.40;;;18.50;42.80;;;;;;4876342;29;20271;-83
2022/03/15 07:19:43;;;;;;;10.45;8.05;;;18.50;43.10;;;;;;4864965;29;20224;-82
2022/03/15 07:22:09;;;;;;;9.40;7.68;;;18.50;43.20;;;;;;4824644;29;20181;-81
2022/03/15 07:24:37;;;;;;;9.95;8.30;;;18.50;42.90;;;;;;4870601;29;20628;-86
2022/03/15 07:27:05;;;;;;;12.00;8.10;;;18.60;42.60;;;;;;4839533;29;20226;-81
2022/03/15 07:29:30;;;;;;;10.50;8.57;;;18.60;43.00;;;;;;4839416;29;20180;-83
2022/03/15 07:32:01;;;;;;;11.50;8.70;;;18.60;42.60;;;;;;4840161;29;20182;-82
2022/03/15 07:34:27;;;;;;;10.07;7.97;;;18.60;42.80;;;;;;4837127;29;20256;-84
2022/03/15 07:36:52;;;;;;;9.60;8.02;;;18.60;42.60;;;;;;4868045;29;20239;-87
2022/03/15 07:39:25;;;;;;;11.35;8.35;;;18.60;42.80;;;;;;4853261;29;20161;-84
2022/03/15 07:41:52;;;;;;;12.32;7.60;;;18.60;42.60;;;;;;4837877;29;20203;-82
2022/03/15 07:44:18;;;;;;;13.25;7.82;;;18.70;42.70;;;;;;4827162;29;20278;-82
2022/03/15 07:46:48;;;;;;;11.55;8.30;;;18.70;42.60;;;;;;4854024;29;20208;-81
2022/03/15 07:49:17;;;;;;;11.00;8.10;;;18.70;42.70;;;;;;4855193;29;20173;-81
2022/03/15 07:51:47;;;;;;;8.77;7.50;;;18.70;42.60;;;;;;4862486;29;20252;-80
2022/03/15 07:54:14;;;;;;;12.23;8.02;;;18.80;42.80;;;;;;4863315;29;20185;-82
2022/03/15 07:56:43;;;;;;;10.05;8.20;;;18.80;42.80;;;;;;4849712;29;20242;-85
2022/03/15 07:59:10;;;;;;;10.65;7.97;;;18.80;42.70;;;;;;4844535;29;20162;-83
2022/03/15 08:01:42;;;;;;;10.30;8.13;;;18.80;42.80;;;;;;4811157;29;20189;-85
2022/03/15 08:04:09;;;;;;;10.30;7.80;;;18.80;42.60;;;;;;4811008;29;20239;-84
2022/03/15 08:06:39;;;;;;;9.95;7.47;;;18.80;42.50;;;;;;4843745;29;20178;-86
2022/03/15 08:09:11;;;;;;;10.35;7.53;;;18.80;42.40;;;;;;4812880;29;20538;-84
2022/03/15 08:11:37;;;;;;;10.00;8.00;;;18.80;42.20;;;;;;4797011;29;20301;-83
2022/03/15 08:14:03;;;;;;;11.20;7.93;;;18.90;42.10;;;;;;4842782;29;20185;-88
2022/03/15 08:16:34;;;;;;;8.65;7.70;;;19.00;42.10;;;;;;4844292;29;20600;-83
2022/03/15 08:19:04;;;;;;;10.77;8.73;;;18.90;41.90;;;;;;4811179;29;20292;-82
2022/03/15 08:21:31;;;;;;;10.48;8.10;;;18.90;41.90;;;;;;4811217;29;20274;-85
2022/03/15 08:23:57;;;;;;;11.63;8.02;;;19.00;42.00;;;;;;4843784;29;20161;-82
2022/03/15 08:26:32;;;;;;;9.70;8.15;;;19.00;41.80;;;;;;4842665;29;20185;-82
2022/03/15 08:29:02;;;;;;;10.98;8.52;;;19.00;42.00;;;;;;4812104;29;20269;-87
2022/03/15 08:31:28;;;;;;;10.15;7.93;;;19.00;42.00;;;;;;4811398;29;20188;-86
2022/03/15 08:33:57;;;;;;;9.73;7.90;;;19.00;42.00;;;;;;4842150;29;20177;-83
2022/03/15 08:36:23;;;;;;;10.30;8.25;;;19.00;41.70;;;;;;4811009;29;20405;-86
2022/03/15 08:38:53;;;;;;;8.45;7.38;;;19.00;42.00;;;;;;4843194;29;20633;-85
2022/03/15 08:41:19;;;;;;;9.65;8.35;;;19.00;41.80;;;;;;4811646;29;20189;-82
2022/03/15 08:43:48;;;;;;;10.10;7.68;;;19.10;41.70;;;;;;4842263;29;20162;-86
2022/03/15 08:46:15;;;;;;;9.00;8.02;;;18.90;41.90;;;;;;4796319;29;20196;-84
2022/03/15 08:48:46;;;;;;;9.93;8.13;;;19.10;41.60;;;;;;4842431;29;20185;-83
2022/03/15 08:51:12;;;;;;;9.85;7.95;;;19.10;41.70;;;;;;4826953;29;20196;-85
2022/03/15 08:53:38;;;;;;;9.18;7.28;;;19.00;41.60;;;;;;4830726;29;20181;-82
2022/03/15 08:56:09;;;;;;;14.80;8.40;;;19.00;42.60;;;;;;4848777;29;20196;-86
2022/03/15 08:58:35;;;;;;;8.82;7.88;;;19.00;42.00;;;;;;4799420;29;20276;-81
2022/03/15 09:01:01;;;;;;;9.57;8.57;;;19.00;41.80;;;;;;4848403;29;20180;-84
2022/03/15 09:03:31;;;;;;;10.65;7.80;;;19.00;41.60;;;;;;4831250;29;20186;-82
2022/03/15 09:06:01;;;;;;;8.18;7.32;;;19.00;42.00;;;;;;4830295;29;20629;-82
2022/03/15 09:08:27;;;;;;;12.00;8.07;;;19.00;42.10;;;;;;4800801;29;20196;-84
2022/03/15 09:10:57;;;;;;;10.43;7.63;;;18.90;42.00;;;;;;4848527;29;20150;-84
2022/03/15 09:13:27;;;;;;;11.13;7.80;;;18.90;42.20;;;;;;4817676;29;20281;-83
2022/03/15 09:15:59;;;;;;;9.18;7.80;;;18.90;42.00;;;;;;4818124;29;20281;-81
2022/03/15 09:18:26;;;;;;;10.05;7.90;;;19.00;41.50;;;;;;4823382;29;20225;-83
2022/03/15 09:20:53;;;;;;;10.38;7.38;;;19.10;41.20;;;;;;4850740;29;20181;-81
2022/03/15 09:23:22;;;;;;;12.23;7.95;;;19.20;41.50;;;;;;4834440;29;20216;-84
2022/03/15 09:25:49;;;;;;;9.55;7.45;;;19.20;41.40;;;;;;4832650;29;20193;-83
2022/03/15 09:28:20;;;;;;;12.27;7.65;;;19.20;41.40;;;;;;4833872;29;20181;-84
2022/03/15 09:30:46;;;;;;;9.60;7.45;;;19.20;41.90;;;;;;4847431;29;20653;-85
2022/03/15 09:33:12;;;;;;;10.07;8.07;;;19.20;41.70;;;;;;4848107;29;20189;-84
2022/03/15 09:35:42;;;;;;;10.70;7.80;;;19.20;41.70;;;;;;4848868;29;20232;-83
2022/03/15 09:38:09;;;;;;;11.18;8.60;;;19.10;41.40;;;;;;4832238;29;20185;-83
2022/03/15 09:40:38;;;;;;;11.52;8.07;;;19.20;41.60;;;;;;4837329;29;20177;-85
2022/03/15 09:43:08;;;;;;;10.88;7.65;;;19.20;41.60;;;;;;4835523;29;20222;-81
2022/03/15 09:45:35;;;;;;;10.10;7.75;;;19.20;41.30;;;;;;4821819;29;20198;-82
2022/03/15 09:48:04;;;;;;;11.15;7.93;;;19.20;41.50;;;;;;4852601;29;20164;-83
2022/03/15 09:50:31;;;;;;;10.15;7.82;;;19.30;41.20;;;;;;4838298;29;20183;-83
2022/03/15 09:52:57;;;;;;;9.80;7.75;;;19.30;41.50;;;;;;4853622;29;20208;-82
2022/03/15 09:55:27;;;;;;;13.68;8.15;;;19.30;41.20;;;;;;4852629;29;20681;-83
2022/03/15 09:57:54;;;;;;;11.27;8.45;;;19.30;41.40;;;;;;4854003;29;20200;-82
2022/03/15 10:00:24;;;;;;;11.05;8.07;;;19.20;41.30;;;;;;4838342;29;20768;-82
2022/03/15 10:02:50;;;;;;;18.30;8.38;;;19.30;41.40;;;;;;4839672;29;20238;-83
2022/03/15 10:05:20;;;;;;;27.17;8.68;;;19.40;41.40;;;;;;4840745;29;20197;-81
2022/03/15 10:07:46;;;;;;;21.27;9.25;;;19.30;41.50;;;;;;4840483;29;20216;-82
2022/03/15 10:10:14;;;;;;;24.50;8.38;;;19.30;41.60;;;;;;4854236;29;20161;-82
2022/03/15 10:12:40;;;;;;;18.05;8.13;;;19.30;41.50;;;;;;4854214;29;20165;-81
2022/03/15 10:15:21;;;;;;;14.77;8.98;;;19.30;41.60;;;;;;4854490;29;20319;-81
2022/03/15 10:17:47;;;;;;;15.20;8.20;;;19.30;41.70;;;;;;4842368;29;20193;-83
2022/03/15 10:20:18;;;;;;;12.55;8.25;;;19.20;41.40;;;;;;4857081;29;20205;-82
2022/03/15 10:22:55;;;;;;;11.48;8.40;;;19.20;41.10;;;;;;4826542;29;20184;-82
2022/03/15 10:25:22;;;;;;;12.55;8.65;;;19.30;41.00;;;;;;4889420;29;20164;-82
2022/03/15 10:27:54;;;;;;;11.43;8.75;;;19.30;40.70;;;;;;4871756;29;20160;-82
2022/03/15 10:30:20;;;;;;;12.60;8.15;;;19.40;41.10;;;;;;4871991;29;20176;-82
2022/03/15 10:32:53;;;;;;;14.02;8.93;;;19.30;40.90;;;;;;4889863;29;20157;-82
2022/03/15 10:35:22;;;;;;;17.05;8.48;;;19.30;41.10;;;;;;4827408;29;20212;-83
2022/03/15 10:37:52;;;;;;;12.00;8.82;;;19.20;41.20;;;;;;4888180;29;20558;-81
2022/03/15 10:40:18;;;;;;;17.02;8.15;;;19.40;41.10;;;;;;4825468;29;20682;-84
2022/03/15 10:42:46;;;;;;;11.85;9.10;;;19.30;41.50;;;;;;4870113;29;20160;-83
2022/03/15 10:45:20;;;;;;;16.67;8.77;;;19.30;40.50;;;;;;4854227;29;20525;-82
2022/03/15 10:47:54;;;;;;;13.88;8.20;;;19.30;40.90;;;;;;4840735;29;20188;-84
2022/03/15 10:50:21;;;;;;;12.90;8.30;;;19.30;41.20;;;;;;4854839;29;20195;-85
2022/03/15 10:52:47;;;;;;;12.05;8.80;;;19.30;41.50;;;;;;4870486;29;20180;-81
2022/03/15 10:55:22;;;;;;;10.95;8.38;;;19.30;41.00;;;;;;4869179;29;20286;-82
2022/03/15 10:58:07;;;;;;;13.23;8.48;;;19.20;41.00;;;;;;4839790;29;20251;-81
2022/03/15 11:00:39;;;;;;;11.10;8.52;;;19.30;40.40;;;;;;4874656;29;20259;-83
2022/03/15 11:03:13;;;;;;;11.85;8.68;;;19.30;40.40;;;;;;4840126;29;20188;-87
2022/03/15 11:05:42;;;;;;;13.60;8.32;;;19.30;40.70;;;;;;4826534;29;20279;-84
2022/03/15 11:08:10;;;;;;;14.30;7.95;;;19.30;40.60;;;;;;4838460;29;20227;-82
2022/03/15 11:10:42;;;;;;;10.55;7.75;;;19.30;40.10;;;;;;4856051;29;20189;-83
2022/03/15 11:13:15;;;;;;;11.50;8.38;;;19.20;41.10;;;;;;4840591;29;20192;-83
2022/03/15 11:15:48;;;;;;;11.25;8.52;;;19.20;41.10;;;;;;4824918;29;20245;-84
2022/03/15 11:18:16;;;;;;;12.95;8.38;;;19.20;41.00;;;;;;4834304;29;20285;-82
2022/03/15 11:20:48;;;;;;;12.63;7.88;;;19.30;40.80;;;;;;4851453;29;20180;-84
2022/03/15 11:23:17;;;;;;;11.48;8.27;;;19.30;40.90;;;;;;4865592;29;20207;-84
2022/03/15 11:25:46;;;;;;;13.27;8.85;;;19.20;41.00;;;;;;4836105;29;20204;-85
2022/03/15 11:28:25;;;;;;;12.27;8.13;;;19.30;41.20;;;;;;4851616;29;20162;-81
2022/03/15 11:30:56;;;;;;;12.15;8.30;;;19.20;41.50;;;;;;4823441;29;20193;-83
2022/03/15 11:33:23;;;;;;;10.77;7.97;;;19.30;40.90;;;;;;4843885;29;20189;-83
2022/03/15 11:35:51;;;;;;;14.05;8.50;;;19.30;41.30;;;;;;4851494;29;20280;-86
2022/03/15 11:38:21;;;;;;;9.85;8.05;;;19.30;41.40;;;;;;4851116;29;20564;-82
2022/03/15 11:40:54;;;;;;;12.13;8.23;;;19.30;41.30;;;;;;4850084;29;20193;-83
2022/03/15 11:43:43;;;;;;;10.35;8.25;;;19.30;41.00;;;;;;4847663;29;20188;-84
2022/03/15 11:46:19;;;;;;;10.32;8.15;;;19.30;41.00;;;;;;4846383;29;20193;-86
2022/03/15 11:49:09;;;;;;;11.80;8.70;;;19.30;41.20;;;;;;4830963;29;20680;-85
2022/03/15 11:52:01;;;;;;;12.10;8.25;;;19.30;41.40;;;;;;4844747;29;20190;-81
2022/03/15 11:54:49;;;;;;;11.95;8.50;;;19.30;41.00;;;;;;4847281;29;20173;-83
2022/03/15 11:57:24;;;;;;;10.98;8.20;;;19.20;41.40;;;;;;4832482;29;20381;-82
2022/03/15 11:59:52;;;;;;;9.90;7.88;;;19.30;40.90;;;;;;4815327;29;20188;-82
2022/03/15 12:02:34;;;;;;;11.05;8.27;;;19.30;41.10;;;;;;4846727;29;20257;-80
2022/03/15 12:05:11;;;;;;;9.20;7.40;;;19.30;41.00;;;;;;4857166;29;20193;-84
2022/03/15 12:07:45;;;;;;;10.73;8.07;;;19.30;41.20;;;;;;4840486;29;20280;-85
2022/03/15 12:10:20;;;;;;;11.02;8.07;;;19.30;40.80;;;;;;4856693;29;20178;-81
2022/03/15 12:12:47;;;;;;;11.05;8.18;;;19.30;41.10;;;;;;4828222;29;20170;-84
2022/03/15 12:15:15;;;;;;;9.00;7.72;;;19.20;41.10;;;;;;4857705;29;20185;-84
2022/03/15 12:17:41;;;;;;;10.95;8.35;;;19.30;41.10;;;;;;4861867;29;20681;-84
2022/03/15 12:20:16;;;;;;;11.02;8.27;;;19.40;41.10;;;;;;4882795;29;20176;-83
2022/03/15 12:22:43;;;;;;;10.10;8.00;;;19.30;41.10;;;;;;4820267;29;20251;-84
2022/03/15 12:25:13;;;;;;;9.68;8.40;;;19.30;41.20;;;;;;4882086;29;20699;-82
2022/03/15 12:27:41;;;;;;;10.77;8.15;;;19.30;41.10;;;;;;4882780;29;20242;-83
2022/03/15 12:30:08;;;;;;;10.20;7.80;;;19.30;41.40;;;;;;4865538;29;20175;-84
2022/03/15 12:32:34;;;;;;;10.93;7.85;;;19.30;40.90;;;;;;4881131;29;20356;-82
2022/03/15 12:35:00;;;;;;;10.95;8.60;;;19.30;41.00;;;;;;4849096;29;20636;-85
2022/03/15 12:37:34;;;;;;;11.48;8.60;;;19.40;40.60;;;;;;4871108;29;20205;-82
2022/03/15 12:40:02;;;;;;;10.48;8.13;;;19.40;40.50;;;;;;4871622;29;20171;-82
2022/03/15 12:42:31;;;;;;;10.50;8.60;;;19.40;40.50;;;;;;4868292;29;20179;-82
2022/03/15 12:45:11;;;;;;;13.48;8.57;;;19.30;40.40;;;;;;4868472;29;20175;-84
2022/03/15 12:47:40;;;;;;;11.85;7.93;;;19.30;41.00;;;;;;4839581;29;20191;-83